createdAt,value
2022-10-18T00:00:26.890Z,15.95
2022-10-18T00:04:02.085Z,14.90
2022-10-18T00:28:58.753Z,16.58
2022-10-18T00:31:47.235Z,17.65
2022-10-18T00:41:40.021Z,19.90
2022-10-18T00:44:30.827Z,21.15
2022-10-18T00:47:45.935Z,19.75
2022-10-18T00:51:23.246Z,17.05
2022-10-18T00:54:15.397Z,18.40
2022-10-18T00:56:59.334Z,18.85
2022-10-18T01:00:07.016Z,17.90
2022-10-18T01:03:04.887Z,19.08
2022-10-18T01:05:45.620Z,20.10
2022-10-18T01:08:43.856Z,17.35
2022-10-18T01:11:35.146Z,16.67
2022-10-18T01:14:31.274Z,16.65
2022-10-18T01:17:18.180Z,23.60
2022-10-18T01:20:15.615Z,13.43
2022-10-18T01:23:31.262Z,20.02
2022-10-18T01:26:13.749Z,16.05
2022-10-18T01:29:26.364Z,21.63
2022-10-18T01:33:03.367Z,17.58
2022-10-18T01:36:17.042Z,14.48
2022-10-18T01:39:27.130Z,23.25
2022-10-18T01:42:16.652Z,18.92
2022-10-18T01:45:12.506Z,17.02
2022-10-18T01:47:54.375Z,20.05
2022-10-18T01:50:50.195Z,24.45
2022-10-18T01:53:48.027Z,19.00
2022-10-18T01:57:01.483Z,22.58
2022-10-18T02:00:42.537Z,19.27
2022-10-18T02:03:37.429Z,19.65
2022-10-18T02:06:50.981Z,20.80
2022-10-18T02:09:57.224Z,20.40
2022-10-18T02:14:28.796Z,20.95
2022-10-18T02:26:11.043Z,21.88
2022-10-18T02:33:21.936Z,26.23
2022-10-18T02:41:20.739Z,17.92
2022-10-18T02:44:31.665Z,20.77
2022-10-18T02:47:42.868Z,20.65
2022-10-18T02:50:26.311Z,23.83
2022-10-18T02:54:18.619Z,20.23
2022-10-18T02:57:33.608Z,20.08
2022-10-18T03:00:05.132Z,21.95
2022-10-18T03:02:53.156Z,27.38
2022-10-18T03:06:02.741Z,24.38
2022-10-18T03:09:18.195Z,24.23
2022-10-18T03:36:16.332Z,28.17
2022-10-18T03:39:45.251Z,23.15
2022-10-18T03:43:14.468Z,24.70
2022-10-18T03:46:18.516Z,22.33
2022-10-18T03:56:06.019Z,23.17
2022-10-18T03:58:43.147Z,20.73
2022-10-18T04:01:15.652Z,27.05
2022-10-18T04:03:47.391Z,29.05
2022-10-18T04:06:25.525Z,24.67
2022-10-18T04:09:04.266Z,23.63
2022-10-18T04:11:43.708Z,21.38
2022-10-18T04:14:15.116Z,32.85
2022-10-18T04:16:49.395Z,23.60
2022-10-18T04:19:20.214Z,22.90
2022-10-18T04:22:03.688Z,22.35
2022-10-18T04:24:38.960Z,33.00
2022-10-18T04:27:20.772Z,25.70
2022-10-18T04:29:51.479Z,26.80
2022-10-18T04:32:31.542Z,24.05
2022-10-18T04:35:14.708Z,21.52
2022-10-18T04:37:48.913Z,20.00
2022-10-18T04:40:24.043Z,24.38
2022-10-18T04:42:54.749Z,25.60
2022-10-18T04:45:29.049Z,32.15
2022-10-18T04:48:01.520Z,38.75
2022-10-18T04:50:29.521Z,30.10
2022-10-18T04:53:03.856Z,31.17
2022-10-18T04:55:32.689Z,25.30
2022-10-18T04:58:10.755Z,21.67
2022-10-18T05:00:41.838Z,25.10
2022-10-18T05:03:17.026Z,23.65
2022-10-18T05:08:52.610Z,27.20
2022-10-18T05:11:29.337Z,23.88
2022-10-18T05:14:10.216Z,22.10
2022-10-18T05:16:47.396Z,26.58
2022-10-18T05:19:30.437Z,22.10
2022-10-18T05:22:07.938Z,26.17
2022-10-18T05:24:41.760Z,31.45
2022-10-18T05:27:15.636Z,29.42
2022-10-18T05:29:52.446Z,32.38
2022-10-18T05:32:30.582Z,27.40
2022-10-18T05:35:25.220Z,27.48
2022-10-18T05:38:00.802Z,23.27
2022-10-18T05:40:46.673Z,26.45
2022-10-18T05:43:18.208Z,24.45
2022-10-18T05:45:59.233Z,34.78
2022-10-18T05:48:56.420Z,30.77
2022-10-18T05:51:29.368Z,30.25
2022-10-18T05:54:01.133Z,28.98
2022-10-18T05:56:29.191Z,26.45
2022-10-18T05:59:00.401Z,30.70
2022-10-18T06:01:30.858Z,24.75
2022-10-18T06:04:06.329Z,33.97
2022-10-18T06:06:35.037Z,25.83
2022-10-18T06:09:08.581Z,28.73
2022-10-18T06:11:40.978Z,27.83
2022-10-18T06:14:50.723Z,25.73
2022-10-18T06:18:25.473Z,29.45
2022-10-18T06:21:19.730Z,26.52
2022-10-18T06:24:07.770Z,26.25
2022-10-18T06:26:36.827Z,30.52
2022-10-18T06:29:05.959Z,23.25
2022-10-18T06:31:33.860Z,23.70
2022-10-18T06:34:07.734Z,26.95
2022-10-18T06:36:41.788Z,30.08
2022-10-18T06:39:10.601Z,27.20
2022-10-18T06:41:39.677Z,26.60
2022-10-18T06:44:21.346Z,24.08
2022-10-18T06:46:53.615Z,23.08
2022-10-18T06:49:21.388Z,26.17
2022-10-18T06:51:52.006Z,23.70
2022-10-18T06:54:21.505Z,21.05
2022-10-18T06:56:49.277Z,21.77
2022-10-18T06:59:18.304Z,21.45
2022-10-18T07:01:49.741Z,28.55
2022-10-18T07:04:18.921Z,32.08
2022-10-18T07:06:46.859Z,21.73
2022-10-18T07:09:14.679Z,24.50
2022-10-18T07:11:42.826Z,23.83
2022-10-18T07:14:16.697Z,23.98
2022-10-18T07:16:48.725Z,21.73
2022-10-18T07:22:18.294Z,20.38
2022-10-18T07:25:07.709Z,22.65
2022-10-18T07:27:40.613Z,31.70
2022-10-18T07:30:09.775Z,26.38
2022-10-18T07:32:37.078Z,41.15
2022-10-18T07:35:04.193Z,54.15
2022-10-18T07:37:31.349Z,61.65
2022-10-18T07:39:58.410Z,29.05
2022-10-18T07:42:25.434Z,20.10
2022-10-18T07:44:52.242Z,24.27
2022-10-18T07:47:19.086Z,21.40
2022-10-18T07:49:45.990Z,24.17
2022-10-18T07:52:12.809Z,17.30
2022-10-18T07:54:40.068Z,18.98
2022-10-18T07:57:06.993Z,18.52
2022-10-18T07:59:33.875Z,25.75
2022-10-18T08:02:00.764Z,20.38
2022-10-18T08:04:27.694Z,18.40
2022-10-18T08:06:54.538Z,23.27
2022-10-18T08:09:21.794Z,24.17
2022-10-18T08:11:48.670Z,22.05
2022-10-18T08:14:15.513Z,23.15
2022-10-18T08:16:42.318Z,19.73
2022-10-18T08:19:09.274Z,18.75
2022-10-18T08:21:36.122Z,21.88
2022-10-18T08:24:03.134Z,25.65
2022-10-18T08:26:30.004Z,32.78
2022-10-18T08:29:10.657Z,75.70
2022-10-18T08:31:43.713Z,110.43
2022-10-18T08:34:10.750Z,51.15
2022-10-18T08:36:37.905Z,26.60
2022-10-18T08:39:04.712Z,24.05
2022-10-18T08:41:37.730Z,36.70
2022-10-18T08:44:28.319Z,21.48
2022-10-18T08:47:14.944Z,16.98
2022-10-18T08:49:56.354Z,21.88
2022-10-18T08:52:49.584Z,19.23
2022-10-18T08:55:39.655Z,25.00
2022-10-18T08:58:24.648Z,17.75
2022-10-18T09:01:27.366Z,23.95
2022-10-18T09:04:21.513Z,20.67
2022-10-18T09:06:56.930Z,15.07
2022-10-18T09:09:35.594Z,11.98
2022-10-18T09:12:39.115Z,20.60
2022-10-18T09:15:24.806Z,16.05
2022-10-18T09:18:08.730Z,10.82
2022-10-18T09:20:57.098Z,18.15
2022-10-18T09:26:17.431Z,13.23
2022-10-18T09:29:30.915Z,12.63
2022-10-18T09:32:04.695Z,11.15
2022-10-18T09:34:49.078Z,7.10
2022-10-18T09:37:19.598Z,8.45
2022-10-18T09:39:49.447Z,11.13
2022-10-18T09:42:31.554Z,10.25
2022-10-18T09:45:20.094Z,10.07
2022-10-18T09:48:03.334Z,12.55
2022-10-18T09:50:44.155Z,14.18
2022-10-18T09:53:16.826Z,9.35
2022-10-18T09:55:57.179Z,9.65
2022-10-18T09:58:27.382Z,9.90
2022-10-18T10:00:55.612Z,15.15
2022-10-18T10:03:22.551Z,16.48
2022-10-18T10:06:12.306Z,10.40
2022-10-18T10:08:49.558Z,23.60
2022-10-18T10:11:36.697Z,16.98
2022-10-18T10:14:23.002Z,55.85
2022-10-18T10:17:22.631Z,38.72
2022-10-18T10:20:17.771Z,15.27
2022-10-18T10:22:47.441Z,11.77
2022-10-18T10:25:35.930Z,12.70
2022-10-18T10:28:16.770Z,12.63
2022-10-18T10:30:43.698Z,10.30
2022-10-18T10:33:32.527Z,14.95
2022-10-18T10:36:01.448Z,8.38
2022-10-18T10:38:30.623Z,12.93
2022-10-18T10:40:58.866Z,18.15
2022-10-18T10:43:38.227Z,18.73
2022-10-18T10:46:18.873Z,19.10
2022-10-18T10:49:15.365Z,26.55
2022-10-18T10:51:45.123Z,14.68
2022-10-18T10:54:22.329Z,16.48
2022-10-18T10:57:01.451Z,11.20
2022-10-18T10:59:34.084Z,16.52
2022-10-18T11:02:17.487Z,13.73
2022-10-18T11:04:49.994Z,9.57
2022-10-18T11:07:16.803Z,12.40
2022-10-18T11:09:58.652Z,11.50
2022-10-18T11:12:37.837Z,11.38
2022-10-18T11:15:11.772Z,9.20
2022-10-18T11:17:44.347Z,10.45
2022-10-18T11:20:23.288Z,13.65
2022-10-18T11:23:02.284Z,10.02
2022-10-18T11:25:47.435Z,8.68
2022-10-18T11:28:31.120Z,7.20
2022-10-18T11:31:18.804Z,7.57
2022-10-18T11:34:11.795Z,10.48
2022-10-18T11:37:16.006Z,7.28
2022-10-18T11:39:50.632Z,8.98
2022-10-18T11:42:51.515Z,12.25
2022-10-18T11:45:56.944Z,8.25
2022-10-18T11:48:42.612Z,10.95
2022-10-18T11:51:38.700Z,9.43
2022-10-18T11:54:21.769Z,10.07
2022-10-18T11:57:08.357Z,20.80
2022-10-18T11:59:54.908Z,12.93
2022-10-18T12:02:43.878Z,8.63
2022-10-18T12:05:23.200Z,9.48
2022-10-18T12:07:58.599Z,12.05
2022-10-18T12:10:39.278Z,10.07
2022-10-18T12:13:33.838Z,10.60
2022-10-18T12:16:04.154Z,14.48
2022-10-18T12:18:32.915Z,11.43
2022-10-18T12:21:01.731Z,7.10
2022-10-18T12:23:42.260Z,8.77
2022-10-18T12:26:11.332Z,8.63
2022-10-18T12:28:59.543Z,36.65
2022-10-18T12:31:37.804Z,14.15
2022-10-18T12:34:22.293Z,7.97
2022-10-18T12:37:10.442Z,8.90
2022-10-18T12:40:08.650Z,5.50
2022-10-18T12:42:33.546Z,8.05
2022-10-18T12:45:02.796Z,11.15
2022-10-18T12:47:30.608Z,9.18
2022-10-18T12:50:00.638Z,5.35
2022-10-18T12:52:30.073Z,14.35
2022-10-18T12:55:26.172Z,21.67
2022-10-18T12:57:53.029Z,18.33
2022-10-18T13:00:32.082Z,11.80
2022-10-18T13:03:16.494Z,11.05
2022-10-18T13:05:55.038Z,14.30
2022-10-18T13:08:31.489Z,7.65
2022-10-18T13:13:41.924Z,10.68
2022-10-18T13:16:20.820Z,5.50
2022-10-18T13:18:52.505Z,7.13
2022-10-18T13:21:25.280Z,7.57
2022-10-18T13:24:04.344Z,9.20
2022-10-18T13:27:00.149Z,6.50
2022-10-18T13:29:41.392Z,5.13
2022-10-18T13:32:44.987Z,9.80
2022-10-18T13:35:44.796Z,7.25
2022-10-18T13:38:39.613Z,6.03
2022-10-18T13:41:08.221Z,12.60
2022-10-18T13:43:55.833Z,16.27
2022-10-18T13:46:34.380Z,19.98
2022-10-18T13:49:39.189Z,8.32
2022-10-18T13:52:41.628Z,7.55
2022-10-18T13:55:14.642Z,7.85
2022-10-18T13:57:41.490Z,10.38
2022-10-18T14:00:21.414Z,10.80
2022-10-18T14:03:04.045Z,8.75
2022-10-18T14:05:44.644Z,7.80
2022-10-18T14:08:47.933Z,14.40
2022-10-18T14:11:33.604Z,7.75
2022-10-18T14:14:23.013Z,9.07
2022-10-18T14:17:17.628Z,5.15
2022-10-18T14:19:48.979Z,5.55
2022-10-18T14:22:25.057Z,9.55
2022-10-18T14:24:55.283Z,6.45
2022-10-18T14:27:26.826Z,5.18
2022-10-18T14:30:16.345Z,6.30
2022-10-18T14:32:49.409Z,8.15
2022-10-18T14:35:33.745Z,11.27
2022-10-18T14:38:02.317Z,8.18
2022-10-18T14:40:33.247Z,8.85
2022-10-18T14:43:07.159Z,4.47
2022-10-18T14:45:34.102Z,4.70
2022-10-18T14:48:14.611Z,6.43
2022-10-18T14:50:43.750Z,8.02
2022-10-18T14:53:18.698Z,6.07
2022-10-18T14:55:58.001Z,12.73
2022-10-18T14:58:24.946Z,11.85
2022-10-18T15:00:52.088Z,14.35
2022-10-18T15:03:19.136Z,25.55
2022-10-18T15:05:56.614Z,18.75
2022-10-18T15:08:24.667Z,8.60
2022-10-18T15:10:52.126Z,19.00
2022-10-18T15:13:19.345Z,10.63
2022-10-18T15:15:46.818Z,8.48
2022-10-18T15:18:28.661Z,4.90
2022-10-18T15:21:17.273Z,6.32
2022-10-18T15:23:44.077Z,9.05
2022-10-18T15:26:14.345Z,14.70
2022-10-18T15:28:53.888Z,8.43
2022-10-18T15:31:34.906Z,10.13
2022-10-18T15:34:23.512Z,14.63
2022-10-18T15:36:52.750Z,10.30
2022-10-18T15:39:21.258Z,9.65
2022-10-18T15:41:58.976Z,10.52
2022-10-18T15:44:49.202Z,4.40
2022-10-18T15:47:21.652Z,7.65
2022-10-18T15:49:56.047Z,5.60
2022-10-18T15:52:37.499Z,5.88
2022-10-18T15:58:15.566Z,8.10
2022-10-18T16:00:43.690Z,4.35
2022-10-18T16:03:11.141Z,4.75
2022-10-18T16:05:38.646Z,5.07
2022-10-18T16:08:05.801Z,7.32
2022-10-18T16:10:33.018Z,5.03
2022-10-18T16:12:59.859Z,5.85
2022-10-18T16:15:26.750Z,6.85
2022-10-18T16:17:53.526Z,8.05
2022-10-18T16:20:24.884Z,11.60
2022-10-18T16:22:51.729Z,13.00
2022-10-18T16:25:18.737Z,14.20
2022-10-18T16:27:45.663Z,8.85
2022-10-18T16:30:16.278Z,11.65
2022-10-18T16:32:43.114Z,18.90
2022-10-18T16:35:12.079Z,8.05
2022-10-18T16:37:39.838Z,10.32
2022-10-18T16:40:23.728Z,8.05
2022-10-18T16:42:50.699Z,8.10
2022-10-18T16:45:20.717Z,8.73
2022-10-18T16:47:48.031Z,5.03
2022-10-18T16:50:18.735Z,13.38
2022-10-18T16:52:45.594Z,19.10
2022-10-18T16:55:21.048Z,13.23
2022-10-18T16:57:48.824Z,15.00
2022-10-18T17:00:22.197Z,16.48
2022-10-18T17:02:49.387Z,11.52
2022-10-18T17:05:17.832Z,12.68
2022-10-18T17:07:45.630Z,5.85
2022-10-18T17:10:19.174Z,6.70
2022-10-18T17:12:46.575Z,5.78
2022-10-18T17:15:13.746Z,7.00
2022-10-18T17:17:41.171Z,10.10
2022-10-18T17:20:09.335Z,6.97
2022-10-18T17:22:36.216Z,9.13
2022-10-18T17:25:03.566Z,4.55
2022-10-18T17:27:30.545Z,8.50
2022-10-18T17:29:57.606Z,4.47
2022-10-18T17:32:24.503Z,8.05
2022-10-18T17:34:51.535Z,8.23
2022-10-18T17:37:18.644Z,5.97
2022-10-18T17:39:45.526Z,13.07
2022-10-18T17:42:12.510Z,16.08
2022-10-18T17:44:39.529Z,12.68
2022-10-18T17:47:06.283Z,8.48
2022-10-18T17:49:33.362Z,5.50
2022-10-18T17:52:06.109Z,9.60
2022-10-18T17:54:33.916Z,7.25
2022-10-18T17:57:00.904Z,8.45
2022-10-18T17:59:28.771Z,8.43
2022-10-18T18:01:55.605Z,8.68
2022-10-18T18:04:23.592Z,10.75
2022-10-18T18:06:52.770Z,31.98
2022-10-18T18:09:21.014Z,12.48
2022-10-18T18:11:48.774Z,6.55
2022-10-18T18:14:16.101Z,11.45
2022-10-18T18:16:45.075Z,13.80
2022-10-18T18:19:12.438Z,12.00
2022-10-18T18:21:40.273Z,6.65
2022-10-18T18:24:07.880Z,7.60
2022-10-18T18:26:36.019Z,8.98
2022-10-18T18:31:40.050Z,20.08
2022-10-18T18:34:10.271Z,11.82
2022-10-18T18:36:37.784Z,14.35
2022-10-18T18:39:05.735Z,6.72
2022-10-18T18:41:32.803Z,9.15
2022-10-18T18:44:01.810Z,6.55
2022-10-18T18:46:32.936Z,11.98
2022-10-18T18:48:59.976Z,3.67
2022-10-18T18:51:27.122Z,8.15
2022-10-18T18:53:54.363Z,5.97
2022-10-18T18:56:23.984Z,10.30
2022-10-18T18:58:52.596Z,7.22
2022-10-18T19:01:22.122Z,6.03
2022-10-18T19:03:50.944Z,7.20
2022-10-18T19:06:23.611Z,7.55
2022-10-18T19:08:53.910Z,12.05
2022-10-18T19:11:22.289Z,4.93
2022-10-18T19:13:50.737Z,5.13
2022-10-18T19:16:19.925Z,5.15
2022-10-18T19:18:58.684Z,5.25
2022-10-18T19:21:28.116Z,5.15
2022-10-18T19:23:56.516Z,5.15
2022-10-18T19:26:33.780Z,4.28
2022-10-18T19:29:17.459Z,4.35
2022-10-18T19:31:45.513Z,4.97
2022-10-18T19:34:13.860Z,2.78
2022-10-18T19:36:41.908Z,6.88
2022-10-18T19:39:18.412Z,3.58
2022-10-18T19:41:46.550Z,3.05
2022-10-18T19:44:13.617Z,2.67
2022-10-18T19:46:40.569Z,4.20
2022-10-18T19:49:07.520Z,4.88
2022-10-18T19:51:34.673Z,8.05
2022-10-18T19:54:01.711Z,4.20
2022-10-18T19:56:29.256Z,5.95
2022-10-18T19:58:57.924Z,3.83
2022-10-18T20:01:27.572Z,4.18
2022-10-18T20:03:59.115Z,11.13
2022-10-18T20:06:30.317Z,3.42
2022-10-18T20:08:57.968Z,7.80
2022-10-18T20:11:27.436Z,4.93
2022-10-18T20:13:55.243Z,6.43
2022-10-18T20:16:28.375Z,5.82
2022-10-18T20:19:03.100Z,5.05
2022-10-18T20:21:32.515Z,3.88
2022-10-18T20:23:59.649Z,7.60
2022-10-18T20:26:26.847Z,4.78
2022-10-18T20:28:59.788Z,3.50
2022-10-18T20:31:30.454Z,3.78
2022-10-18T20:34:00.857Z,5.97
2022-10-18T20:36:30.054Z,6.45
2022-10-18T20:38:57.708Z,3.42
2022-10-18T20:41:27.790Z,9.07
2022-10-18T20:44:00.493Z,6.20
2022-10-18T20:46:30.668Z,8.05
2022-10-18T20:48:57.920Z,4.57
2022-10-18T20:51:25.389Z,4.80
2022-10-18T20:53:53.606Z,5.13
2022-10-18T20:56:23.391Z,3.90
2022-10-18T20:58:52.263Z,5.10
2022-10-18T21:01:29.111Z,5.45
2022-10-18T21:03:59.949Z,4.22
2022-10-18T21:06:30.284Z,4.20
2022-10-18T21:09:05.871Z,2.90
2022-10-18T21:11:36.820Z,8.50
2022-10-18T21:14:05.129Z,2.75
2022-10-18T21:16:34.226Z,7.97
2022-10-18T21:19:07.652Z,4.95
2022-10-18T21:21:35.265Z,4.45
2022-10-18T21:24:06.866Z,5.60
2022-10-18T21:26:35.736Z,7.40
2022-10-18T21:29:08.712Z,5.40
2022-10-18T21:31:40.409Z,6.45
2022-10-18T21:34:13.754Z,8.05
2022-10-18T21:36:42.746Z,3.22
2022-10-18T21:39:14.897Z,6.28
2022-10-18T21:41:44.693Z,3.83
2022-10-18T21:44:12.529Z,4.60
2022-10-18T21:46:42.823Z,5.82
2022-10-18T21:49:10.968Z,7.55
2022-10-18T21:51:38.733Z,4.45
2022-10-18T21:54:10.013Z,8.10
2022-10-18T21:56:37.390Z,5.93
2022-10-18T21:59:04.938Z,6.95
2022-10-18T22:01:35.538Z,4.55
2022-10-18T22:04:05.081Z,6.88
2022-10-18T22:07:02.841Z,6.15
2022-10-18T22:09:30.177Z,8.63
2022-10-18T22:12:22.677Z,6.00
2022-10-18T22:14:53.081Z,4.93
2022-10-18T22:17:20.413Z,6.80
2022-10-18T22:19:47.889Z,3.03
2022-10-18T22:22:15.617Z,5.32
2022-10-18T22:24:53.749Z,4.07
2022-10-18T22:27:24.328Z,6.15
2022-10-18T22:29:54.024Z,6.20
2022-10-18T22:32:21.486Z,5.45
2022-10-18T22:34:48.555Z,5.05
2022-10-18T22:37:16.457Z,6.13
2022-10-18T22:39:47.489Z,6.78
2022-10-18T22:42:23.184Z,2.90
2022-10-18T22:45:24.586Z,4.75
2022-10-18T22:48:27.865Z,6.53
2022-10-18T22:50:58.222Z,5.70
2022-10-18T22:53:26.451Z,2.63
2022-10-18T22:56:23.653Z,4.57
2022-10-18T22:58:50.946Z,8.45
2022-10-18T23:01:54.546Z,3.63
2022-10-18T23:04:50.716Z,5.20
2022-10-18T23:07:18.478Z,4.05
2022-10-18T23:09:45.851Z,3.80
2022-10-18T23:12:13.762Z,6.78
2022-10-18T23:14:41.718Z,4.03
2022-10-18T23:17:13.087Z,4.13
2022-10-18T23:19:41.482Z,3.90
2022-10-18T23:22:09.242Z,2.63
2022-10-18T23:24:36.532Z,4.07
2022-10-18T23:27:03.882Z,4.50
2022-10-18T23:30:18.770Z,5.18
2022-10-18T23:34:04.990Z,11.32
2022-10-18T23:42:16.087Z,5.25
2022-10-18T23:50:05.540Z,6.05
2022-10-18T23:58:32.280Z,2.40
